sensor_id;sensor_type;location;lat;lon;timestamp;pressure;altitude;pressure_sealevel;temperature;humidity
57442;BME280;43284;47.042;15.498;2023-07-20T00:02:20;96660.25;;;17.59;100.00
57442;BME280;43284;47.042;15.498;2023-07-20T00:04:45;96649.69;;;17.59;100.00
57442;BME280;43284;47.042;15.498;2023-07-20T00:07:11;96649.69;;;17.59;100.00
57442;BME280;43284;47.042;15.498;2023-07-20T00:09:37;96651.63;;;17.57;100.00
57442;BME280;43284;47.042;15.498;2023-07-20T00:12:03;96653.16;;;17.59;100.00
57442;BME280;43284;47.042;15.498;2023-07-20T00:14:28;96660.97;;;17.61;100.00
57442;BME280;43284;47.042;15.498;2023-07-20T00:16:55;96659.16;;;17.61;100.00
57442;BME280;43284;47.042;15.498;2023-07-20T00:19:25;96645.00;;;17.62;100.00
57442;BME280;43284;47.042;15.498;2023-07-20T00:21:51;96650.84;;;17.66;100.00
57442;BME280;43284;47.042;15.498;2023-07-20T00:24:17;96662.06;;;17.58;100.00
57442;BME280;43284;47.042;15.498;2023-07-20T00:26:43;96654.97;;;17.59;100.00
57442;BME280;43284;47.042;15.498;2023-07-20T00:29:09;96658.44;;;17.59;100.00
57442;BME280;43284;47.042;15.498;2023-07-20T00:31:35;96654.13;;;17.58;100.00
57442;BME280;43284;47.042;15.498;2023-07-20T00:34:08;96648.00;;;17.58;100.00
57442;BME280;43284;47.042;15.498;2023-07-20T00:36:33;96649.09;;;17.55;100.00
57442;BME280;43284;47.042;15.498;2023-07-20T00:38:59;96649.94;;;17.56;100.00
57442;BME280;43284;47.042;15.498;2023-07-20T00:41:24;96646.34;;;17.57;100.00
57442;BME280;43284;47.042;15.498;2023-07-20T00:43:54;96645.34;;;17.58;100.00
57442;BME280;43284;47.042;15.498;2023-07-20T00:46:23;96651.31;;;17.50;100.00
57442;BME280;43284;47.042;15.498;2023-07-20T00:48:52;96647.38;;;17.44;100.00
57442;BME280;43284;47.042;15.498;2023-07-20T00:51:18;96648.25;;;17.34;100.00
57442;BME280;43284;47.042;15.498;2023-07-20T00:53:44;96648.66;;;17.29;100.00
57442;BME280;43284;47.042;15.498;2023-07-20T00:56:10;96645.56;;;17.24;100.00
57442;BME280;43284;47.042;15.498;2023-07-20T00:58:36;96654.72;;;17.20;100.00
57442;BME280;43284;47.042;15.498;2023-07-20T01:01:01;96657.47;;;17.18;100.00
57442;BME280;43284;47.042;15.498;2023-07-20T01:03:27;96652.91;;;17.20;100.00
57442;BME280;43284;47.042;15.498;2023-07-20T01:09:04;96652.28;;;17.28;100.00
57442;BME280;43284;47.042;15.498;2023-07-20T01:12:02;96652.16;;;17.29;100.00
57442;BME280;43284;47.042;15.498;2023-07-20T01:14:29;96628.50;;;17.28;100.00
57442;BME280;43284;47.042;15.498;2023-07-20T01:16:55;96626.81;;;17.27;100.00
57442;BME280;43284;47.042;15.498;2023-07-20T01:19:20;96627.66;;;17.27;100.00
57442;BME280;43284;47.042;15.498;2023-07-20T01:22:00;96631.03;;;17.29;100.00
57442;BME280;43284;47.042;15.498;2023-07-20T01:32:23;96629.22;;;17.30;100.00
57442;BME280;43284;47.042;15.498;2023-07-20T01:34:52;96624.56;;;17.22;100.00
57442;BME280;43284;47.042;15.498;2023-07-20T01:37:20;96640.47;;;17.11;100.00
57442;BME280;43284;47.042;15.498;2023-07-20T01:39:47;96638.44;;;17.15;100.00
57442;BME280;43284;47.042;15.498;2023-07-20T01:42:12;96640.81;;;17.18;100.00
57442;BME280;43284;47.042;15.498;2023-07-20T01:44:38;96645.75;;;17.11;100.00
57442;BME280;43284;47.042;15.498;2023-07-20T01:47:04;96647.44;;;17.12;100.00
57442;BME280;43284;47.042;15.498;2023-07-20T01:49:29;96653.41;;;17.14;100.00
57442;BME280;43284;47.042;15.498;2023-07-20T01:51:55;96649.38;;;17.10;100.00
57442;BME280;43284;47.042;15.498;2023-07-20T01:54:22;96652.97;;;17.09;100.00
57442;BME280;43284;47.042;15.498;2023-07-20T01:56:48;96658.97;;;17.11;100.00
57442;BME280;43284;47.042;15.498;2023-07-20T01:59:13;96664.50;;;17.08;100.00
57442;BME280;43284;47.042;15.498;2023-07-20T02:01:39;96656.13;;;17.03;100.00
57442;BME280;43284;47.042;15.498;2023-07-20T02:04:04;96669.09;;;17.06;100.00
57442;BME280;43284;47.042;15.498;2023-07-20T02:06:30;96669.91;;;17.06;100.00
57442;BME280;43284;47.042;15.498;2023-07-20T02:08:55;96671.72;;;17.06;100.00
57442;BME280;43284;47.042;15.498;2023-07-20T02:11:21;96684.09;;;17.05;100.00
57442;BME280;43284;47.042;15.498;2023-07-20T02:13:46;96675.19;;;17.06;100.00
57442;BME280;43284;47.042;15.498;2023-07-20T02:16:12;96674.22;;;17.07;100.00
57442;BME280;43284;47.042;15.498;2023-07-20T02:18:37;96682.03;;;17.09;100.00
57442;BME280;43284;47.042;15.498;2023-07-20T02:21:03;96678.53;;;17.08;100.00
57442;BME280;43284;47.042;15.498;2023-07-20T02:23:28;96675.63;;;17.12;100.00
57442;BME280;43284;47.042;15.498;2023-07-20T02:25:54;96685.38;;;17.11;100.00
57442;BME280;43284;47.042;15.498;2023-07-20T02:28:19;96683.94;;;17.07;100.00
57442;BME280;43284;47.042;15.498;2023-07-20T02:30:45;96689.22;;;17.07;100.00
57442;BME280;43284;47.042;15.498;2023-07-20T02:33:11;96695.22;;;17.09;100.00
57442;BME280;43284;47.042;15.498;2023-07-20T02:35:36;96691.88;;;17.07;100.00
57442;BME280;43284;47.042;15.498;2023-07-20T02:38:02;96700.28;;;17.01;100.00
57442;BME280;43284;47.042;15.498;2023-07-20T02:40:28;96699.94;;;16.94;100.00
57442;BME280;43284;47.042;15.498;2023-07-20T02:42:54;96699.00;;;16.95;100.00
57442;BME280;43284;47.042;15.498;2023-07-20T02:45:19;96699.84;;;16.96;100.00
57442;BME280;43284;47.042;15.498;2023-07-20T02:47:45;96695.53;;;16.95;100.00
57442;BME280;43284;47.042;15.498;2023-07-20T02:50:10;96703.47;;;16.95;100.00
57442;BME280;43284;47.042;15.498;2023-07-20T02:52:38;96712.44;;;16.92;100.00
57442;BME280;43284;47.042;15.498;2023-07-20T02:55:04;96707.03;;;16.94;100.00
57442;BME280;43284;47.042;15.498;2023-07-20T02:57:30;96720.13;;;16.95;100.00
57442;BME280;43284;47.042;15.498;2023-07-20T02:59:55;96712.94;;;16.97;100.00
57442;BME280;43284;47.042;15.498;2023-07-20T03:02:21;96711.38;;;16.95;100.00
57442;BME280;43284;47.042;15.498;2023-07-20T03:04:46;96706.34;;;16.92;100.00
57442;BME280;43284;47.042;15.498;2023-07-20T03:07:12;96702.25;;;16.87;100.00
57442;BME280;43284;47.042;15.498;2023-07-20T03:09:38;96704.91;;;16.87;100.00
57442;BME280;43284;47.042;15.498;2023-07-20T03:12:03;96704.06;;;16.87;100.00
57442;BME280;43284;47.042;15.498;2023-07-20T03:14:30;96703.72;;;16.80;100.00
57442;BME280;43284;47.042;15.498;2023-07-20T03:16:55;96701.31;;;16.77;100.00
57442;BME280;43284;47.042;15.498;2023-07-20T03:19:21;96696.97;;;16.76;100.00
57442;BME280;43284;47.042;15.498;2023-07-20T03:21:46;96702.53;;;16.73;100.00
57442;BME280;43284;47.042;15.498;2023-07-20T03:24:12;96700.97;;;16.71;100.00
57442;BME280;43284;47.042;15.498;2023-07-20T03:26:37;96704.81;;;16.66;100.00
57442;BME280;43284;47.042;15.498;2023-07-20T03:29:04;96701.47;;;16.64;100.00
57442;BME280;43284;47.042;15.498;2023-07-20T03:31:30;96706.75;;;16.64;100.00
57442;BME280;43284;47.042;15.498;2023-07-20T03:33:56;96711.03;;;16.65;100.00
57442;BME280;43284;47.042;15.498;2023-07-20T03:36:21;96707.19;;;16.69;100.00
57442;BME280;43284;47.042;15.498;2023-07-20T03:38:47;96707.09;;;16.71;100.00
57442;BME280;43284;47.042;15.498;2023-07-20T03:41:12;96713.09;;;16.73;100.00
57442;BME280;43284;47.042;15.498;2023-07-20T03:43:40;96710.28;;;16.75;100.00
57442;BME280;43284;47.042;15.498;2023-07-20T03:46:05;96707.66;;;16.75;100.00
57442;BME280;43284;47.042;15.498;2023-07-20T03:48:32;96717.53;;;16.73;100.00
57442;BME280;43284;47.042;15.498;2023-07-20T03:50:58;96721.84;;;16.74;100.00
57442;BME280;43284;47.042;15.498;2023-07-20T03:53:25;96725.44;;;16.73;100.00
57442;BME280;43284;47.042;15.498;2023-07-20T03:55:52;96732.38;;;16.74;100.00
57442;BME280;43284;47.042;15.498;2023-07-20T03:58:19;96725.31;;;16.74;100.00
57442;BME280;43284;47.042;15.498;2023-07-20T04:00:49;96716.28;;;16.77;100.00
57442;BME280;43284;47.042;15.498;2023-07-20T04:03:18;96724.09;;;16.78;100.00
57442;BME280;43284;47.042;15.498;2023-07-20T04:05:44;96717.66;;;16.82;100.00
57442;BME280;43284;47.042;15.498;2023-07-20T04:08:10;96717.97;;;16.89;100.00
57442;BME280;43284;47.042;15.498;2023-07-20T04:10:37;96717.50;;;16.95;100.00
57442;BME280;43284;47.042;15.498;2023-07-20T04:13:03;96717.22;;;16.98;100.00
57442;BME280;43284;47.042;15.498;2023-07-20T04:15:28;96715.91;;;17.04;100.00
57442;BME280;43284;47.042;15.498;2023-07-20T04:17:54;96717.91;;;17.12;96.15
57442;BME280;43284;47.042;15.498;2023-07-20T04:20:22;96718.13;;;17.20;96.40
57442;BME280;43284;47.042;15.498;2023-07-20T04:22:48;96721.09;;;17.26;98.11
57442;BME280;43284;47.042;15.498;2023-07-20T04:25:13;96720.63;;;17.21;98.39
57442;BME280;43284;47.042;15.498;2023-07-20T04:27:39;96718.44;;;17.26;100.00
57442;BME280;43284;47.042;15.498;2023-07-20T04:30:07;96721.19;;;17.25;99.38
57442;BME280;43284;47.042;15.498;2023-07-20T04:32:33;96724.00;;;17.23;100.00
57442;BME280;43284;47.042;15.498;2023-07-20T04:34:59;96729.28;;;17.23;100.00
57442;BME280;43284;47.042;15.498;2023-07-20T04:37:25;96732.47;;;17.27;100.00
57442;BME280;43284;47.042;15.498;2023-07-20T04:39:50;96736.56;;;17.31;100.00
57442;BME280;43284;47.042;15.498;2023-07-20T04:42:16;96733.53;;;17.36;100.00
57442;BME280;43284;47.042;15.498;2023-07-20T04:44:41;96733.03;;;17.42;99.71
57442;BME280;43284;47.042;15.498;2023-07-20T04:47:07;96741.53;;;17.45;99.34
57442;BME280;43284;47.042;15.498;2023-07-20T04:49:34;96738.50;;;17.50;98.26
57442;BME280;43284;47.042;15.498;2023-07-20T04:51:59;96738.25;;;17.53;97.17
57442;BME280;43284;47.042;15.498;2023-07-20T04:54:25;96735.22;;;17.58;97.37
57442;BME280;43284;47.042;15.498;2023-07-20T04:56:53;96734.97;;;17.61;96.83
57442;BME280;43284;47.042;15.498;2023-07-20T04:59:18;96734.00;;;17.62;97.19
57442;BME280;43284;47.042;15.498;2023-07-20T05:01:45;96744.00;;;17.58;96.76
57442;BME280;43284;47.042;15.498;2023-07-20T05:04:10;96739.44;;;17.60;97.41
57442;BME280;43284;47.042;15.498;2023-07-20T05:06:36;96746.25;;;17.63;96.64
57442;BME280;43284;47.042;15.498;2023-07-20T05:09:01;96744.44;;;17.63;94.96
57442;BME280;43284;47.042;15.498;2023-07-20T05:11:27;96749.22;;;17.69;94.84
57442;BME280;43284;47.042;15.498;2023-07-20T05:13:52;96749.66;;;17.75;95.32
57442;BME280;43284;47.042;15.498;2023-07-20T05:16:18;96739.41;;;17.81;96.21
57442;BME280;43284;47.042;15.498;2023-07-20T05:18:44;96746.97;;;17.86;91.56
57442;BME280;43284;47.042;15.498;2023-07-20T05:21:09;96739.81;;;17.98;86.42
57442;BME280;43284;47.042;15.498;2023-07-20T05:23:35;96745.75;;;18.11;88.24
57442;BME280;43284;47.042;15.498;2023-07-20T05:26:00;96744.25;;;18.18;85.63
57442;BME280;43284;47.042;15.498;2023-07-20T05:28:26;96747.69;;;18.49;87.26
57442;BME280;43284;47.042;15.498;2023-07-20T05:30:52;96746.75;;;18.50;89.48
57442;BME280;43284;47.042;15.498;2023-07-20T05:33:19;96759.00;;;18.51;89.92
57442;BME280;43284;47.042;15.498;2023-07-20T05:35:45;96756.22;;;18.53;92.02
57442;BME280;43284;47.042;15.498;2023-07-20T05:38:10;96755.13;;;18.56;92.85
57442;BME280;43284;47.042;15.498;2023-07-20T05:40:41;96760.28;;;18.57;93.32
57442;BME280;43284;47.042;15.498;2023-07-20T05:43:09;96757.50;;;18.59;93.00
57442;BME280;43284;47.042;15.498;2023-07-20T05:45:34;96759.56;;;18.55;92.20
57442;BME280;43284;47.042;15.498;2023-07-20T05:48:00;96760.28;;;18.57;92.95
57442;BME280;43284;47.042;15.498;2023-07-20T05:50:25;96762.53;;;18.62;93.28
57442;BME280;43284;47.042;15.498;2023-07-20T05:52:54;96765.88;;;18.64;94.70
57442;BME280;43284;47.042;15.498;2023-07-20T05:55:20;96771.88;;;18.66;94.85
57442;BME280;43284;47.042;15.498;2023-07-20T05:57:46;96768.00;;;18.70;95.18
57442;BME280;43284;47.042;15.498;2023-07-20T06:00:13;96771.38;;;18.82;97.73
57442;BME280;43284;47.042;15.498;2023-07-20T06:02:39;96758.56;;;18.87;97.32
57442;BME280;43284;47.042;15.498;2023-07-20T06:05:08;96767.50;;;18.96;98.44
57442;BME280;43284;47.042;15.498;2023-07-20T06:07:38;96772.25;;;19.02;97.52
57442;BME280;43284;47.042;15.498;2023-07-20T06:10:04;96767.66;;;19.04;96.05
57442;BME280;43284;47.042;15.498;2023-07-20T06:12:31;96773.41;;;19.09;95.72
57442;BME280;43284;47.042;15.498;2023-07-20T06:14:56;96773.97;;;19.12;94.65
57442;BME280;43284;47.042;15.498;2023-07-20T06:17:22;96774.53;;;19.16;94.13
57442;BME280;43284;47.042;15.498;2023-07-20T06:19:47;96779.53;;;19.19;94.05
57442;BME280;43284;47.042;15.498;2023-07-20T06:22:13;96781.78;;;19.24;94.45
57442;BME280;43284;47.042;15.498;2023-07-20T06:24:38;96780.53;;;19.28;94.21
57442;BME280;43284;47.042;15.498;2023-07-20T06:27:04;96779.28;;;19.32;94.35
57442;BME280;43284;47.042;15.498;2023-07-20T06:29:31;96780.56;;;19.38;94.06
57442;BME280;43284;47.042;15.498;2023-07-20T06:31:56;96780.97;;;19.43;94.07
57442;BME280;43284;47.042;15.498;2023-07-20T06:34:22;96789.91;;;19.51;94.17
57442;BME280;43284;47.042;15.498;2023-07-20T06:36:50;96782.50;;;19.65;96.51
57442;BME280;43284;47.042;15.498;2023-07-20T06:39:15;96787.41;;;19.69;95.82
57442;BME280;43284;47.042;15.498;2023-07-20T06:41:41;96789.94;;;19.71;93.33
57442;BME280;43284;47.042;15.498;2023-07-20T06:44:06;96785.31;;;19.73;91.22
57442;BME280;43284;47.042;15.498;2023-07-20T06:46:33;96790.59;;;19.83;92.04
57442;BME280;43284;47.042;15.498;2023-07-20T06:48:58;96795.34;;;19.89;89.48
57442;BME280;43284;47.042;15.498;2023-07-20T06:51:24;96785.13;;;19.94;89.32
57442;BME280;43284;47.042;15.498;2023-07-20T06:53:49;96783.75;;;20.00;88.91
57442;BME280;43284;47.042;15.498;2023-07-20T06:56:15;96785.84;;;20.06;88.47
57442;BME280;43284;47.042;15.498;2023-07-20T06:58:40;96782.63;;;20.12;88.74
57442;BME280;43284;47.042;15.498;2023-07-20T07:01:08;96784.41;;;20.21;88.54
57442;BME280;43284;47.042;15.498;2023-07-20T07:03:33;96790.94;;;20.27;89.71
57442;BME280;43284;47.042;15.498;2023-07-20T07:05:59;96786.88;;;20.32;90.20
57442;BME280;43284;47.042;15.498;2023-07-20T07:08:25;96793.72;;;20.35;89.03
57442;BME280;43284;47.042;15.498;2023-07-20T07:10:52;96792.31;;;20.41;90.55
57442;BME280;43284;47.042;15.498;2023-07-20T07:13:18;96796.75;;;20.50;91.81
57442;BME280;43284;47.042;15.498;2023-07-20T07:15:44;96803.44;;;20.54;92.34
57442;BME280;43284;47.042;15.498;2023-07-20T07:18:09;96798.81;;;20.56;91.91
57442;BME280;43284;47.042;15.498;2023-07-20T07:20:35;96800.25;;;20.60;90.49
57442;BME280;43284;47.042;15.498;2023-07-20T07:23:00;96805.63;;;20.68;91.92
57442;BME280;43284;47.042;15.498;2023-07-20T07:25:26;96802.72;;;20.71;89.68
57442;BME280;43284;47.042;15.498;2023-07-20T07:27:53;96802.41;;;20.74;85.92
57442;BME280;43284;47.042;15.498;2023-07-20T07:30:18;96801.38;;;20.85;86.87
57442;BME280;43284;47.042;15.498;2023-07-20T07:32:44;96800.47;;;20.94;87.23
57442;BME280;43284;47.042;15.498;2023-07-20T07:35:09;96795.72;;;20.98;84.13
57442;BME280;43284;47.042;15.498;2023-07-20T07:37:35;96800.31;;;21.06;82.92
57442;BME280;43284;47.042;15.498;2023-07-20T07:40:02;96793.78;;;21.18;85.12
57442;BME280;43284;47.042;15.498;2023-07-20T07:42:29;96795.69;;;21.26;85.43
57442;BME280;43284;47.042;15.498;2023-07-20T07:44:54;96781.25;;;21.28;83.96
57442;BME280;43284;47.042;15.498;2023-07-20T07:47:20;96783.59;;;21.31;83.27
57442;BME280;43284;47.042;15.498;2023-07-20T07:49:45;96795.47;;;21.37;84.65
57442;BME280;43284;47.042;15.498;2023-07-20T07:52:11;96798.81;;;21.39;84.51
57442;BME280;43284;47.042;15.498;2023-07-20T07:54:36;96796.00;;;21.40;84.92
57442;BME280;43284;47.042;15.498;2023-07-20T07:57:02;96793.06;;;21.44;85.41
57442;BME280;43284;47.042;15.498;2023-07-20T07:59:27;96796.41;;;21.46;84.48
57442;BME280;43284;47.042;15.498;2023-07-20T08:01:53;96786.84;;;21.53;83.51
57442;BME280;43284;47.042;15.498;2023-07-20T08:04:18;96783.56;;;21.59;82.47
57442;BME280;43284;47.042;15.498;2023-07-20T08:06:44;96789.25;;;21.64;81.78
57442;BME280;43284;47.042;15.498;2023-07-20T08:09:10;96782.97;;;21.65;79.07
57442;BME280;43284;47.042;15.498;2023-07-20T08:11:35;96782.38;;;21.71;79.07
57442;BME280;43284;47.042;15.498;2023-07-20T08:14:01;96787.72;;;21.79;79.02
57442;BME280;43284;47.042;15.498;2023-07-20T08:16:26;96788.50;;;21.90;79.39
57442;BME280;43284;47.042;15.498;2023-07-20T08:18:52;96797.38;;;21.98;77.26
57442;BME280;43284;47.042;15.498;2023-07-20T08:21:18;96797.25;;;22.08;79.54
57442;BME280;43284;47.042;15.498;2023-07-20T08:23:44;96791.66;;;22.11;75.69
57442;BME280;43284;47.042;15.498;2023-07-20T08:26:09;96790.03;;;22.18;75.56
57442;BME280;43284;47.042;15.498;2023-07-20T08:28:35;96789.09;;;22.28;76.27
57442;BME280;43284;47.042;15.498;2023-07-20T08:31:00;96788.34;;;22.35;72.54
57442;BME280;43284;47.042;15.498;2023-07-20T08:33:26;96793.25;;;22.48;75.05
57442;BME280;43284;47.042;15.498;2023-07-20T08:35:54;96784.97;;;22.59;78.01
57442;BME280;43284;47.042;15.498;2023-07-20T08:38:20;96783.03;;;22.70;76.10
57442;BME280;43284;47.042;15.498;2023-07-20T08:40:46;96794.72;;;22.77;74.25
57442;BME280;43284;47.042;15.498;2023-07-20T08:43:13;96789.03;;;22.80;72.98
57442;BME280;43284;47.042;15.498;2023-07-20T08:45:39;96787.53;;;22.77;70.81
57442;BME280;43284;47.042;15.498;2023-07-20T08:48:07;96785.22;;;22.82;69.82
57442;BME280;43284;47.042;15.498;2023-07-20T08:50:34;96791.28;;;22.93;69.81
57442;BME280;43284;47.042;15.498;2023-07-20T08:53:00;96788.66;;;23.01;70.22
57442;BME280;43284;47.042;15.498;2023-07-20T08:55:26;96788.72;;;23.09;69.74
57442;BME280;43284;47.042;15.498;2023-07-20T08:57:56;96792.53;;;23.15;67.03
57442;BME280;43284;47.042;15.498;2023-07-20T09:00:24;96794.25;;;23.32;69.08
57442;BME280;43284;47.042;15.498;2023-07-20T09:02:53;96797.63;;;23.42;68.66
57442;BME280;43284;47.042;15.498;2023-07-20T09:05:23;96792.28;;;23.59;68.24
57442;BME280;43284;47.042;15.498;2023-07-20T09:07:51;96787.63;;;23.69;67.01
57442;BME280;43284;47.042;15.498;2023-07-20T09:10:19;96784.66;;;23.80;66.34
57442;BME280;43284;47.042;15.498;2023-07-20T09:12:46;96787.34;;;23.97;65.26
57442;BME280;43284;47.042;15.498;2023-07-20T09:15:12;96787.66;;;24.02;64.28
57442;BME280;43284;47.042;15.498;2023-07-20T09:17:37;96777.66;;;24.12;63.27
57442;BME280;43284;47.042;15.498;2023-07-20T09:20:05;96773.78;;;24.23;61.91
57442;BME280;43284;47.042;15.498;2023-07-20T09:22:39;96779.97;;;24.32;63.01
57442;BME280;43284;47.042;15.498;2023-07-20T09:25:13;96773.59;;;24.33;61.06
57442;BME280;43284;47.042;15.498;2023-07-20T09:27:46;96774.94;;;24.37;60.76
57442;BME280;43284;47.042;15.498;2023-07-20T09:30:14;96781.09;;;24.37;58.64
57442;BME280;43284;47.042;15.498;2023-07-20T09:32:42;96773.75;;;24.39;59.20
57442;BME280;43284;47.042;15.498;2023-07-20T09:35:16;96774.25;;;24.51;60.39
57442;BME280;43284;47.042;15.498;2023-07-20T09:37:55;96781.91;;;24.62;64.08
57442;BME280;43284;47.042;15.498;2023-07-20T09:40:23;96777.38;;;24.71;62.22
57442;BME280;43284;47.042;15.498;2023-07-20T09:42:52;96774.19;;;24.76;58.14
57442;BME280;43284;47.042;15.498;2023-07-20T09:45:17;96772.47;;;24.83;53.71
57442;BME280;43284;47.042;15.498;2023-07-20T09:47:43;96770.09;;;24.88;53.33
57442;BME280;43284;47.042;15.498;2023-07-20T09:50:09;96771.91;;;24.96;54.72
57442;BME280;43284;47.042;15.498;2023-07-20T09:52:39;96766.69;;;25.02;56.20
57442;BME280;43284;47.042;15.498;2023-07-20T09:55:08;96768.81;;;25.15;59.20
57442;BME280;43284;47.042;15.498;2023-07-20T09:57:35;96773.94;;;25.25;58.17
57442;BME280;43284;47.042;15.498;2023-07-20T10:00:03;96777.78;;;25.31;56.79
57442;BME280;43284;47.042;15.498;2023-07-20T10:02:37;96775.56;;;25.34;55.72
57442;BME280;43284;47.042;15.498;2023-07-20T10:05:08;96777.84;;;25.45;59.60
57442;BME280;43284;47.042;15.498;2023-07-20T10:07:36;96780.22;;;25.63;62.34
57442;BME280;43284;47.042;15.498;2023-07-20T10:10:06;96778.00;;;25.67;59.13
57442;BME280;43284;47.042;15.498;2023-07-20T10:12:33;96777.13;;;25.75;59.18
57442;BME280;43284;47.042;15.498;2023-07-20T10:15:15;96770.91;;;25.82;59.48
57442;BME280;43284;47.042;15.498;2023-07-20T10:18:09;96776.69;;;25.86;57.62
57442;BME280;43284;47.042;15.498;2023-07-20T10:20:36;96774.81;;;25.95;57.46
57442;BME280;43284;47.042;15.498;2023-07-20T10:23:04;96773.00;;;26.10;60.85
57442;BME280;43284;47.042;15.498;2023-07-20T10:25:31;96760.56;;;26.32;60.04
57442;BME280;43284;47.042;15.498;2023-07-20T10:27:58;96774.28;;;26.37;58.05
57442;BME280;43284;47.042;15.498;2023-07-20T10:30:25;96768.13;;;26.14;54.68
57442;BME280;43284;47.042;15.498;2023-07-20T10:32:52;96772.91;;;26.03;56.63
57442;BME280;43284;47.042;15.498;2023-07-20T10:35:18;96767.72;;;26.02;56.72
57442;BME280;43284;47.042;15.498;2023-07-20T10:43:05;96764.41;;;26.15;54.27
57442;BME280;43284;47.042;15.498;2023-07-20T10:48:14;96759.88;;;26.00;55.29
57442;BME280;43284;47.042;15.498;2023-07-20T10:50:43;96758.03;;;26.01;56.32
57442;BME280;43284;47.042;15.498;2023-07-20T10:53:12;96764.66;;;25.90;57.45
57442;BME280;43284;47.042;15.498;2023-07-20T10:55:39;96765.34;;;25.84;56.87
57442;BME280;43284;47.042;15.498;2023-07-20T10:58:09;96756.75;;;25.74;51.44
57442;BME280;43284;47.042;15.498;2023-07-20T11:00:35;96757.34;;;25.61;52.25
57442;BME280;43284;47.042;15.498;2023-07-20T11:03:01;96755.19;;;25.56;55.43
57442;BME280;43284;47.042;15.498;2023-07-20T11:05:35;96742.66;;;25.57;56.36
57442;BME280;43284;47.042;15.498;2023-07-20T11:08:03;96739.59;;;25.60;56.82
57442;BME280;43284;47.042;15.498;2023-07-20T11:10:29;96735.78;;;25.77;55.90
57442;BME280;43284;47.042;15.498;2023-07-20T11:13:17;96734.91;;;26.00;54.62
57442;BME280;43284;47.042;15.498;2023-07-20T11:15:47;96732.84;;;26.40;53.27
57442;BME280;43284;47.042;15.498;2023-07-20T11:18:13;96729.19;;;26.56;48.38
57442;BME280;43284;47.042;15.498;2023-07-20T11:20:40;96732.84;;;26.69;49.42
57442;BME280;43284;47.042;15.498;2023-07-20T11:23:06;96744.22;;;26.86;48.39
57442;BME280;43284;47.042;15.498;2023-07-20T11:25:41;96743.00;;;26.89;48.85
57442;BME280;43284;47.042;15.498;2023-07-20T11:28:08;96739.25;;;26.83;47.21
57442;BME280;43284;47.042;15.498;2023-07-20T11:30:35;96749.25;;;26.75;46.92
57442;BME280;43284;47.042;15.498;2023-07-20T11:33:00;96744.97;;;26.65;48.75
57442;BME280;43284;47.042;15.498;2023-07-20T11:35:26;96739.13;;;26.47;44.01
57442;BME280;43284;47.042;15.498;2023-07-20T11:37:51;96750.03;;;26.45;47.23
57442;BME280;43284;47.042;15.498;2023-07-20T11:40:17;96740.59;;;26.35;46.01
57442;BME280;43284;47.042;15.498;2023-07-20T11:42:43;96755.22;;;26.32;47.00
57442;BME280;43284;47.042;15.498;2023-07-20T11:45:09;96753.06;;;26.27;47.30
57442;BME280;43284;47.042;15.498;2023-07-20T11:47:40;96755.19;;;26.17;48.08
57442;BME280;43284;47.042;15.498;2023-07-20T11:50:06;96754.91;;;26.12;50.93
57442;BME280;43284;47.042;15.498;2023-07-20T11:52:31;96740.41;;;26.21;49.66
57442;BME280;43284;47.042;15.498;2023-07-20T11:54:58;96754.47;;;26.38;49.50
57442;BME280;43284;47.042;15.498;2023-07-20T11:57:24;96755.59;;;26.44;51.87
57442;BME280;43284;47.042;15.498;2023-07-20T11:59:53;96755.31;;;26.39;51.23
57442;BME280;43284;47.042;15.498;2023-07-20T12:02:23;96757.63;;;26.42;54.31
57442;BME280;43284;47.042;15.498;2023-07-20T12:04:51;96754.56;;;26.30;51.63
57442;BME280;43284;47.042;15.498;2023-07-20T12:07:18;96756.22;;;26.31;51.24
57442;BME280;43284;47.042;15.498;2023-07-20T12:09:44;96753.25;;;26.26;50.90
57442;BME280;43284;47.042;15.498;2023-07-20T12:12:10;96752.81;;;26.22;51.63
57442;BME280;43284;47.042;15.498;2023-07-20T12:14:39;96748.44;;;26.21;52.68
57442;BME280;43284;47.042;15.498;2023-07-20T12:17:08;96742.81;;;26.16;53.20
57442;BME280;43284;47.042;15.498;2023-07-20T12:19:38;96743.63;;;26.17;52.66
57442;BME280;43284;47.042;15.498;2023-07-20T12:22:05;96745.41;;;26.09;52.05
57442;BME280;43284;47.042;15.498;2023-07-20T12:24:31;96752.94;;;26.06;52.89
57442;BME280;43284;47.042;15.498;2023-07-20T12:26:58;96753.78;;;25.92;54.90
57442;BME280;43284;47.042;15.498;2023-07-20T12:29:23;96756.31;;;25.85;54.66
57442;BME280;43284;47.042;15.498;2023-07-20T12:31:49;96757.91;;;25.71;53.69
57442;BME280;43284;47.042;15.498;2023-07-20T12:34:15;96770.88;;;25.36;54.67
57442;BME280;43284;47.042;15.498;2023-07-20T12:36:40;96762.50;;;25.08;54.37
57442;BME280;43284;47.042;15.498;2023-07-20T12:39:06;96763.75;;;24.89;55.54
57442;BME280;43284;47.042;15.498;2023-07-20T12:41:31;96768.44;;;24.87;58.58
57442;BME280;43284;47.042;15.498;2023-07-20T12:43:57;96777.00;;;24.74;57.81
57442;BME280;43284;47.042;15.498;2023-07-20T12:46:23;96787.22;;;24.71;60.86
57442;BME280;43284;47.042;15.498;2023-07-20T12:48:49;96782.22;;;24.59;60.69
57442;BME280;43284;47.042;15.498;2023-07-20T12:51:15;96788.78;;;24.32;62.87
57442;BME280;43284;47.042;15.498;2023-07-20T12:53:40;96793.19;;;23.92;62.93
57442;BME280;43284;47.042;15.498;2023-07-20T12:56:06;96795.72;;;23.18;62.21
57442;BME280;43284;47.042;15.498;2023-07-20T12:58:31;96804.69;;;23.09;62.95
57442;BME280;43284;47.042;15.498;2023-07-20T13:00:57;96819.28;;;22.97;64.05
57442;BME280;43284;47.042;15.498;2023-07-20T13:03:23;96817.41;;;22.89;69.99
57442;BME280;43284;47.042;15.498;2023-07-20T13:05:48;96822.56;;;22.56;70.26